createdAt,value
2018-04-27T00:02:08.558Z,93.80
2018-04-27T00:04:37.567Z,93.70
2018-04-27T00:07:05.791Z,93.70
2018-04-27T00:09:34.035Z,93.60
2018-04-27T00:12:02.271Z,93.50
2018-04-27T00:14:31.281Z,93.70
2018-04-27T00:16:59.507Z,93.70
2018-04-27T00:19:27.754Z,93.50
2018-04-27T00:21:55.974Z,93.70
2018-04-27T00:24:24.992Z,93.90
2018-04-27T00:26:53.214Z,93.90
2018-04-27T00:29:21.473Z,93.80
2018-04-27T00:31:49.713Z,93.80
2018-04-27T00:34:18.070Z,93.70
2018-04-27T00:36:46.234Z,93.80
2018-04-27T00:39:14.486Z,93.90
2018-04-27T00:41:42.727Z,93.90
2018-04-27T00:44:10.955Z,93.80
2018-04-27T00:46:39.202Z,93.80
2018-04-27T00:49:07.429Z,94.00
2018-04-27T00:51:35.686Z,94.10
2018-04-27T00:54:04.685Z,94.20
2018-04-27T00:56:33.705Z,94.20
2018-04-27T00:59:02.338Z,94.20
2018-04-27T01:01:30.559Z,94.20
2018-04-27T01:03:58.794Z,94.30
2018-04-27T01:06:27.807Z,94.50
2018-04-27T01:08:56.039Z,94.50
2018-04-27T01:11:24.281Z,94.90
2018-04-27T01:13:52.519Z,94.60
2018-04-27T01:16:21.529Z,94.60
2018-04-27T01:18:49.758Z,94.60
2018-04-27T01:21:18.007Z,94.40
2018-04-27T01:23:46.268Z,94.40
2018-04-27T01:26:14.524Z,94.30
2018-04-27T01:28:42.747Z,94.30
2018-04-27T01:31:10.990Z,94.30
2018-04-27T01:33:39.227Z,94.30
2018-04-27T01:36:08.242Z,94.40
2018-04-27T01:38:36.475Z,94.40
2018-04-27T01:41:04.726Z,94.30
2018-04-27T01:43:32.968Z,94.40
2018-04-27T01:46:01.223Z,94.30
2018-04-27T01:48:29.461Z,94.30
2018-04-27T01:50:57.710Z,94.20
2018-04-27T01:53:25.954Z,94.20
2018-04-27T01:55:55.002Z,94.10
2018-04-27T01:58:23.249Z,94.10
2018-04-27T02:00:51.477Z,94.20
2018-04-27T02:03:20.492Z,94.40
2018-04-27T02:05:48.729Z,94.40
2018-04-27T02:08:17.749Z,94.80
2018-04-27T02:10:45.974Z,94.60
2018-04-27T02:13:14.223Z,94.70
2018-04-27T02:15:42.459Z,94.70
2018-04-27T02:18:10.719Z,94.60
2018-04-27T02:20:39.721Z,94.40
2018-04-27T02:23:08.748Z,94.30
2018-04-27T02:25:36.971Z,94.30
2018-04-27T02:28:05.987Z,94.50
2018-04-27T02:30:34.220Z,94.20
2018-04-27T02:33:02.475Z,94.20
2018-04-27T02:35:30.711Z,94.10
2018-04-27T02:37:58.955Z,94.10
2018-04-27T02:40:27.187Z,94.00
2018-04-27T02:42:55.443Z,94.00
2018-04-27T02:45:23.676Z,94.00
2018-04-27T02:47:51.915Z,94.00
2018-04-27T02:50:20.151Z,94.10
2018-04-27T02:52:48.407Z,94.20
2018-04-27T02:55:17.404Z,94.20
2018-04-27T02:57:46.423Z,94.20
2018-04-27T03:00:15.075Z,94.20
2018-04-27T03:02:44.075Z,94.30
2018-04-27T03:05:13.072Z,94.30
2018-04-27T03:07:41.318Z,94.20
2018-04-27T03:10:09.560Z,94.30
2018-04-27T03:12:37.824Z,94.30
2018-04-27T03:15:06.052Z,94.30
2018-04-27T03:17:35.048Z,94.50
2018-04-27T03:20:04.051Z,94.60
2018-04-27T03:22:32.282Z,94.60
2018-04-27T03:25:00.532Z,94.50
2018-04-27T03:27:28.762Z,94.40
2018-04-27T03:29:57.779Z,94.30
2018-04-27T03:32:26.011Z,94.30
2018-04-27T03:34:54.262Z,94.20
2018-04-27T03:37:22.486Z,94.20
2018-04-27T03:39:50.739Z,94.30
2018-04-27T03:42:19.740Z,94.30
2018-04-27T03:44:48.756Z,94.50
2018-04-27T03:47:16.981Z,94.40
2018-04-27T03:49:45.235Z,94.50
2018-04-27T03:52:13.467Z,94.40
2018-04-27T03:54:41.719Z,94.40
2018-04-27T03:57:10.712Z,94.40
2018-04-27T03:59:51.683Z,94.40
2018-04-27T04:02:32.711Z,94.40
2018-04-27T04:05:12.762Z,94.40
2018-04-27T04:07:40.995Z,94.40
2018-04-27T04:10:09.244Z,94.40
2018-04-27T04:12:37.470Z,94.40
2018-04-27T04:15:05.720Z,94.40
2018-04-27T04:17:33.946Z,94.50
2018-04-27T04:20:02.191Z,94.60
2018-04-27T04:22:30.414Z,94.60
2018-04-27T04:24:59.423Z,94.70
2018-04-27T04:27:28.415Z,94.50
2018-04-27T04:29:57.427Z,94.50
2018-04-27T04:32:25.694Z,94.40
2018-04-27T04:34:54.678Z,94.60
2018-04-27T04:37:22.911Z,94.40
2018-04-27T04:39:51.167Z,94.40
2018-04-27T04:42:19.441Z,94.30
2018-04-27T04:44:48.402Z,94.40
2018-04-27T04:47:16.656Z,94.30
2018-04-27T04:49:45.655Z,94.20
2018-04-27T04:52:13.947Z,94.20
2018-04-27T04:54:42.188Z,94.20
2018-04-27T04:57:11.180Z,94.90
2018-04-27T04:59:40.199Z,94.80
2018-04-27T05:02:08.443Z,94.80
2018-04-27T05:04:37.500Z,94.30
2018-04-27T05:07:05.734Z,94.10
2018-04-27T05:09:33.985Z,94.20
2018-04-27T05:12:03.273Z,94.70
2018-04-27T05:14:31.498Z,94.70
2018-04-27T05:16:59.733Z,94.60
2018-04-27T05:19:28.747Z,94.40
2018-04-27T05:21:56.980Z,94.30
2018-04-27T05:24:25.227Z,94.40
2018-04-27T05:26:53.477Z,94.30
2018-04-27T05:29:21.951Z,94.10
2018-04-27T05:31:50.203Z,94.00
2018-04-27T05:34:19.634Z,94.30
2018-04-27T05:36:48.722Z,94.10
2018-04-27T05:39:16.963Z,94.10
2018-04-27T05:41:45.986Z,93.80
2018-04-27T05:44:14.216Z,93.80
2018-04-27T05:46:42.463Z,94.10
2018-04-27T05:49:10.698Z,94.50
2018-04-27T05:51:38.942Z,94.30
2018-04-27T05:54:07.952Z,93.70
2018-04-27T05:56:36.964Z,93.80
2018-04-27T05:59:05.195Z,93.80
2018-04-27T06:01:33.443Z,93.80
2018-04-27T06:04:13.632Z,93.70
2018-04-27T06:06:41.869Z,92.90
2018-04-27T06:09:10.103Z,92.30
2018-04-27T06:11:38.352Z,92.20
2018-04-27T06:14:06.587Z,92.70
2018-04-27T06:16:34.941Z,91.20
2018-04-27T06:19:03.168Z,91.50
2018-04-27T06:21:31.424Z,91.60
2018-04-27T06:23:59.650Z,91.50
2018-04-27T06:26:27.960Z,91.70
2018-04-27T06:28:56.182Z,90.70
2018-04-27T06:31:25.263Z,90.20
2018-04-27T06:33:54.261Z,90.60
2018-04-27T06:36:23.350Z,91.00
2018-04-27T06:38:51.737Z,91.00
2018-04-27T06:41:20.743Z,90.00
2018-04-27T06:43:48.970Z,90.00
2018-04-27T06:46:17.223Z,88.00
2018-04-27T06:48:45.455Z,87.30
2018-04-27T06:51:14.467Z,87.00
2018-04-27T06:53:42.704Z,87.00
2018-04-27T06:56:10.965Z,87.90
2018-04-27T06:58:39.191Z,88.00
2018-04-27T07:01:07.442Z,85.30
2018-04-27T07:03:36.438Z,82.40
2018-04-27T07:06:05.094Z,82.30
2018-04-27T07:08:33.443Z,84.00
2018-04-27T07:11:01.687Z,82.50
2018-04-27T07:13:29.939Z,81.20
2018-04-27T07:15:58.945Z,82.20
2018-04-27T07:18:27.181Z,82.30
2018-04-27T07:20:55.427Z,80.20
2018-04-27T07:23:23.670Z,80.50
2018-04-27T07:25:52.010Z,81.00
2018-04-27T07:28:20.219Z,79.60
2018-04-27T07:30:48.453Z,82.00
2018-04-27T07:33:16.695Z,79.10
2018-04-27T07:35:44.939Z,79.70
2018-04-27T07:38:13.183Z,79.00
2018-04-27T07:40:42.191Z,78.90
2018-04-27T07:43:11.202Z,77.90
2018-04-27T07:45:39.437Z,77.80
2018-04-27T07:48:07.688Z,76.20
2018-04-27T07:50:35.930Z,75.80
2018-04-27T07:53:04.562Z,76.10
2018-04-27T07:55:32.770Z,77.50
2018-04-27T07:58:01.016Z,74.20
2018-04-27T08:00:30.033Z,75.90
2018-04-27T08:02:58.273Z,75.10
2018-04-27T08:05:26.512Z,74.10
2018-04-27T08:07:54.762Z,72.70
2018-04-27T08:10:23.020Z,72.60
2018-04-27T08:12:51.255Z,70.70
2018-04-27T08:15:19.510Z,71.70
2018-04-27T08:17:47.813Z,70.10
2018-04-27T08:20:21.692Z,69.60
2018-04-27T08:22:50.743Z,71.80
2018-04-27T08:25:19.778Z,70.50
2018-04-27T08:27:51.327Z,68.90
2018-04-27T08:30:19.640Z,68.70
2018-04-27T08:32:47.871Z,66.80
2018-04-27T08:35:16.143Z,65.70
2018-04-27T08:37:44.546Z,65.40
2018-04-27T08:40:12.829Z,68.10
2018-04-27T08:42:41.113Z,65.20
2018-04-27T08:45:09.381Z,65.60
2018-04-27T08:47:37.659Z,65.20
2018-04-27T08:50:05.924Z,66.80
2018-04-27T08:52:34.211Z,68.30
2018-04-27T08:55:02.471Z,64.70
2018-04-27T08:57:30.806Z,65.30
2018-04-27T08:59:59.086Z,64.40
2018-04-27T09:02:27.471Z,66.10
2018-04-27T09:04:55.884Z,66.20
2018-04-27T09:07:24.119Z,61.00
2018-04-27T09:09:52.367Z,63.50
2018-04-27T09:12:20.613Z,66.50
2018-04-27T09:14:48.856Z,64.60
2018-04-27T09:17:17.088Z,63.10
2018-04-27T09:19:45.346Z,65.50
2018-04-27T09:22:14.337Z,62.40
2018-04-27T09:24:43.344Z,61.50
2018-04-27T09:27:11.588Z,61.40
2018-04-27T09:29:39.827Z,60.80
2018-04-27T09:32:08.053Z,60.00
2018-04-27T09:34:37.066Z,61.80
2018-04-27T09:37:05.607Z,61.70
2018-04-27T09:39:33.819Z,60.30
2018-04-27T09:42:02.042Z,62.70
2018-04-27T09:44:30.287Z,58.80
2018-04-27T09:46:58.523Z,59.90
2018-04-27T09:49:27.534Z,64.00
2018-04-27T09:51:55.765Z,64.00
2018-04-27T09:54:24.008Z,61.30
2018-04-27T09:56:52.624Z,58.10
2018-04-27T09:59:20.839Z,53.90
2018-04-27T10:01:49.071Z,53.90
2018-04-27T10:04:17.337Z,54.10
2018-04-27T10:06:45.562Z,51.70
2018-04-27T10:09:13.823Z,53.90
2018-04-27T10:11:42.051Z,53.40
2018-04-27T10:14:10.277Z,52.00
2018-04-27T10:16:38.519Z,53.60
2018-04-27T10:19:07.523Z,54.30
2018-04-27T10:21:36.527Z,53.50
2018-04-27T10:24:04.755Z,53.40
2018-04-27T10:26:33.005Z,55.60
2018-04-27T10:29:01.237Z,56.70
2018-04-27T10:31:30.252Z,53.00
2018-04-27T10:33:58.490Z,53.00
2018-04-27T10:36:26.744Z,57.70
2018-04-27T10:38:55.338Z,57.10
2018-04-27T10:41:23.859Z,59.00
2018-04-27T10:43:52.094Z,56.20
2018-04-27T10:46:20.331Z,54.20
2018-04-27T10:48:48.704Z,55.40
2018-04-27T10:51:16.947Z,55.50
2018-04-27T10:53:45.171Z,56.90
2018-04-27T10:56:13.495Z,51.30
2018-04-27T10:58:41.720Z,53.80
2018-04-27T11:01:09.959Z,53.20
2018-04-27T11:03:38.204Z,54.80
2018-04-27T11:06:07.226Z,54.50
2018-04-27T11:08:35.867Z,54.50
2018-04-27T11:11:04.131Z,55.20
2018-04-27T11:13:32.354Z,50.10
2018-04-27T11:16:00.588Z,51.80
2018-04-27T11:18:28.819Z,56.40
2018-04-27T11:20:57.181Z,50.70
2018-04-27T11:23:25.465Z,51.90
2018-04-27T11:25:53.739Z,50.00
2018-04-27T11:28:22.022Z,51.20
2018-04-27T11:30:50.278Z,48.20
2018-04-27T11:33:18.560Z,49.30
2018-04-27T11:35:46.818Z,50.20
2018-04-27T11:38:15.111Z,48.50
2018-04-27T11:40:43.379Z,47.60
2018-04-27T11:43:11.656Z,48.90
2018-04-27T11:45:39.916Z,49.00
2018-04-27T11:48:08.191Z,50.00
2018-04-27T11:50:36.442Z,54.00
2018-04-27T11:53:05.476Z,50.70
2018-04-27T11:55:33.766Z,50.50
2018-04-27T11:58:02.046Z,46.80
2018-04-27T12:00:30.372Z,47.50
2018-04-27T12:02:59.402Z,48.30
2018-04-27T12:05:27.668Z,48.30
2018-04-27T12:07:55.954Z,46.50
2018-04-27T12:10:24.216Z,49.90
2018-04-27T12:12:52.493Z,51.00
2018-04-27T12:15:20.759Z,51.00
2018-04-27T12:17:49.040Z,48.80
2018-04-27T12:20:17.305Z,47.30
2018-04-27T12:22:45.575Z,50.70
2018-04-27T12:25:13.843Z,50.70
2018-04-27T12:27:42.128Z,49.80
2018-04-27T12:30:10.387Z,50.30
2018-04-27T12:32:38.651Z,50.00
2018-04-27T12:35:07.699Z,48.40
2018-04-27T12:37:35.957Z,48.40
2018-04-27T12:40:04.231Z,49.20
2018-04-27T12:42:32.497Z,50.50
2018-04-27T12:45:00.851Z,51.40
2018-04-27T12:47:29.031Z,49.80
2018-04-27T12:49:57.301Z,48.80
2018-04-27T12:52:25.563Z,48.80
2018-04-27T12:54:54.619Z,50.00
2018-04-27T12:57:22.885Z,50.00
2018-04-27T12:59:51.165Z,49.10
2018-04-27T13:02:19.431Z,51.50
2018-04-27T13:04:47.719Z,47.40
2018-04-27T13:07:15.972Z,48.30
2018-04-27T13:09:44.249Z,45.60
2018-04-27T13:12:12.509Z,47.20
2018-04-27T13:14:40.762Z,46.50
2018-04-27T13:17:09.091Z,43.60
2018-04-27T13:19:38.895Z,49.20
2018-04-27T13:22:07.201Z,49.20
2018-04-27T13:24:35.430Z,42.70
2018-04-27T13:27:04.778Z,43.70
2018-04-27T13:29:33.177Z,45.80
2018-04-27T13:32:01.417Z,47.50
2018-04-27T13:34:29.653Z,50.50
2018-04-27T13:36:57.882Z,46.40
2018-04-27T13:39:26.901Z,46.50
2018-04-27T13:41:55.128Z,46.40
2018-04-27T13:44:23.382Z,46.30
2018-04-27T13:46:51.623Z,47.30
2018-04-27T13:49:19.840Z,49.60
2018-04-27T13:51:48.097Z,45.50
2018-04-27T13:54:16.339Z,47.90
2018-04-27T13:56:45.318Z,48.20
2018-04-27T13:59:13.553Z,48.30
2018-04-27T14:01:41.787Z,46.60
2018-04-27T14:04:10.116Z,48.80
2018-04-27T14:06:39.128Z,50.20
2018-04-27T14:09:07.356Z,50.00
2018-04-27T14:11:35.596Z,48.10
2018-04-27T14:14:03.875Z,50.10
2018-04-27T14:16:32.839Z,51.00
2018-04-27T14:19:01.068Z,50.90
2018-04-27T14:21:29.366Z,51.40
2018-04-27T14:23:57.538Z,50.00
2018-04-27T14:26:25.775Z,48.10
2018-04-27T14:28:54.026Z,51.20
2018-04-27T14:31:22.266Z,53.40
2018-04-27T14:33:51.294Z,48.70
2018-04-27T14:36:20.363Z,47.00
2018-04-27T14:38:49.454Z,46.90
2018-04-27T14:41:18.027Z,46.90
2018-04-27T14:43:46.243Z,46.60
2018-04-27T14:46:14.495Z,49.80
2018-04-27T14:48:42.726Z,54.10
2018-04-27T14:51:10.979Z,53.90
2018-04-27T14:53:39.211Z,50.90
2018-04-27T14:56:07.448Z,48.20
2018-04-27T14:58:35.670Z,51.60
2018-04-27T15:01:03.918Z,47.30
2018-04-27T15:03:32.915Z,49.40
2018-04-27T15:06:01.954Z,49.60
2018-04-27T15:08:31.223Z,48.80
2018-04-27T15:10:59.680Z,48.80
2018-04-27T15:13:27.902Z,51.20
2018-04-27T15:15:56.386Z,50.40
2018-04-27T15:18:25.282Z,48.60
2018-04-27T15:20:53.875Z,45.90
2018-04-27T15:23:22.305Z,46.40
2018-04-27T15:25:50.581Z,48.80
2018-04-27T15:28:19.360Z,49.50
2018-04-27T15:30:47.723Z,52.30
2018-04-27T15:33:15.985Z,51.40
2018-04-27T15:35:44.993Z,47.20
2018-04-27T15:38:14.116Z,46.20
2018-04-27T15:40:44.269Z,46.20
2018-04-27T15:43:12.605Z,45.10
2018-04-27T15:45:40.883Z,45.90
2018-04-27T15:48:09.144Z,45.70
2018-04-27T15:50:37.372Z,47.50
2018-04-27T15:53:05.616Z,49.90
2018-04-27T15:55:33.839Z,47.20
2018-04-27T15:58:02.849Z,55.80
2018-04-27T16:00:31.151Z,56.40
2018-04-27T16:02:59.503Z,51.30
2018-04-27T16:05:27.846Z,51.30
2018-04-27T16:07:56.845Z,50.80
2018-04-27T16:10:25.087Z,50.80
2018-04-27T16:12:53.331Z,49.70
2018-04-27T16:15:21.574Z,49.20
2018-04-27T16:17:50.588Z,54.20
2018-04-27T16:20:19.598Z,50.20
2018-04-27T16:22:47.855Z,50.10
2018-04-27T16:25:16.070Z,49.70
2018-04-27T16:27:44.307Z,49.60
2018-04-27T16:30:12.535Z,47.00
2018-04-27T16:32:40.787Z,51.70
2018-04-27T16:35:09.023Z,49.30
2018-04-27T16:37:37.263Z,47.00
2018-04-27T16:40:06.255Z,47.10
2018-04-27T16:42:35.269Z,46.00
2018-04-27T16:45:03.713Z,45.80
2018-04-27T16:47:31.962Z,49.80
2018-04-27T16:50:00.196Z,47.90
2018-04-27T16:52:28.440Z,48.60
2018-04-27T16:54:56.664Z,53.70
2018-04-27T16:57:24.932Z,53.40
2018-04-27T16:59:53.175Z,53.70
2018-04-27T17:02:21.387Z,53.10
2018-04-27T17:04:49.717Z,56.10
2018-04-27T17:07:17.939Z,54.80
2018-04-27T17:09:46.188Z,55.30
2018-04-27T17:12:14.406Z,57.30
2018-04-27T17:14:42.663Z,56.20
2018-04-27T17:17:11.253Z,56.70
2018-04-27T17:19:39.430Z,55.20
2018-04-27T17:22:08.041Z,55.00
2018-04-27T17:24:36.466Z,56.40
2018-04-27T17:27:04.708Z,55.70
2018-04-27T17:29:34.120Z,56.70
2018-04-27T17:32:02.395Z,56.70
2018-04-27T17:34:31.415Z,59.30
2018-04-27T17:36:59.677Z,59.30
2018-04-27T17:39:27.875Z,58.70
2018-04-27T17:41:56.108Z,59.10
2018-04-27T17:44:24.433Z,59.30
2018-04-27T17:46:52.593Z,58.90
2018-04-27T17:49:20.841Z,60.30
2018-04-27T17:51:49.062Z,63.30
2018-04-27T17:54:17.312Z,61.50
2018-04-27T17:56:45.531Z,61.30
2018-04-27T17:59:14.559Z,61.80
2018-04-27T18:01:42.787Z,61.80
2018-04-27T18:04:11.032Z,64.00
2018-04-27T18:06:39.263Z,64.50
2018-04-27T18:09:07.506Z,64.90
2018-04-27T18:11:35.763Z,64.00
2018-04-27T18:14:03.981Z,62.20
2018-04-27T18:16:32.977Z,63.50
2018-04-27T18:19:01.224Z,63.40
2018-04-27T18:21:29.560Z,64.10
2018-04-27T18:23:57.843Z,62.90
2018-04-27T18:26:26.871Z,63.70
2018-04-27T18:28:55.166Z,63.70
2018-04-27T18:31:24.191Z,64.60
2018-04-27T18:33:52.467Z,64.50
2018-04-27T18:36:20.719Z,64.70
2018-04-27T18:38:49.015Z,64.80
2018-04-27T18:41:17.270Z,65.00
2018-04-27T18:43:45.557Z,67.10
2018-04-27T18:46:13.808Z,67.20
2018-04-27T18:48:42.850Z,67.80
2018-04-27T18:51:17.023Z,67.80
2018-04-27T18:53:45.300Z,66.90
2018-04-27T18:56:15.199Z,67.50
2018-04-27T18:58:44.350Z,67.10
2018-04-27T19:01:16.145Z,67.10
2018-04-27T19:03:44.299Z,69.80
2018-04-27T19:06:12.553Z,69.30
2018-04-27T19:08:40.767Z,70.40
2018-04-27T19:11:09.051Z,70.90
2018-04-27T19:13:38.189Z,71.30
2018-04-27T19:16:06.417Z,70.40
2018-04-27T19:18:34.657Z,70.60
2018-04-27T19:21:03.828Z,71.10
2018-04-27T19:23:34.872Z,71.80
2018-04-27T19:26:03.119Z,72.90
2018-04-27T19:28:34.744Z,73.80
2018-04-27T19:31:03.755Z,72.70
2018-04-27T19:33:31.983Z,72.70
2018-04-27T19:36:00.226Z,72.90
2018-04-27T19:38:28.455Z,72.00
2018-04-27T19:40:57.468Z,72.50
2018-04-27T19:43:25.705Z,72.30
2018-04-27T19:45:53.939Z,72.20
2018-04-27T19:48:22.172Z,73.20
2018-04-27T19:50:50.427Z,73.80
2018-04-27T19:53:18.772Z,76.30
2018-04-27T19:55:47.093Z,76.00
2018-04-27T19:58:16.551Z,75.40
2018-04-27T20:00:46.062Z,77.30
2018-04-27T20:03:15.531Z,77.20
2018-04-27T20:05:46.789Z,76.80
2018-04-27T20:08:16.130Z,77.10
2018-04-27T20:10:44.450Z,77.10
2018-04-27T20:13:15.418Z,77.70
2018-04-27T20:15:43.709Z,78.00
2018-04-27T20:18:21.391Z,77.70
2018-04-27T20:20:50.401Z,76.90
2018-04-27T20:23:25.496Z,78.80
2018-04-27T20:25:54.599Z,78.70
2018-04-27T20:28:22.870Z,79.60
2018-04-27T20:30:51.143Z,79.80
2018-04-27T20:33:21.201Z,80.50
2018-04-27T20:35:53.764Z,80.50
2018-04-27T20:38:22.867Z,80.50
2018-04-27T20:40:51.185Z,80.40
2018-04-27T20:43:24.419Z,80.50
2018-04-27T20:45:55.140Z,80.00
2018-04-27T20:48:27.103Z,79.30
2018-04-27T20:50:58.187Z,79.00
2018-04-27T20:53:27.211Z,79.20
2018-04-27T20:55:58.116Z,79.20
2018-04-27T20:58:26.384Z,81.10
2018-04-27T21:00:55.441Z,81.20
2018-04-27T21:03:23.699Z,81.00
2018-04-27T21:05:52.091Z,80.80
2018-04-27T21:08:21.302Z,82.30
2018-04-27T21:10:49.557Z,80.10
2018-04-27T21:13:18.328Z,79.70
2018-04-27T21:15:46.584Z,80.30
2018-04-27T21:18:16.319Z,82.50
2018-04-27T21:20:44.588Z,83.30
2018-04-27T21:23:12.859Z,82.50
2018-04-27T21:25:43.689Z,82.70
2018-04-27T21:28:12.664Z,81.30
2018-04-27T21:30:40.888Z,81.10
2018-04-27T21:33:09.127Z,80.80
2018-04-27T21:35:52.094Z,82.00
2018-04-27T21:38:25.179Z,82.50
2018-04-27T21:40:53.395Z,82.20
2018-04-27T21:43:21.631Z,81.90
2018-04-27T21:45:50.623Z,81.80
2018-04-27T21:48:24.196Z,83.40
2018-04-27T21:50:52.415Z,82.70
2018-04-27T21:53:21.416Z,84.00
2018-04-27T21:55:49.714Z,84.00
2018-04-27T21:58:22.339Z,83.60
2018-04-27T22:00:50.554Z,83.20
2018-04-27T22:03:19.741Z,83.80
2018-04-27T22:08:49.622Z,84.80
2018-04-27T22:11:25.398Z,85.20
2018-04-27T22:13:54.423Z,85.10
2018-04-27T22:19:18.803Z,84.30
2018-04-27T22:21:47.027Z,85.40
2018-04-27T22:24:15.258Z,85.40
2018-04-27T22:26:45.294Z,86.30
2018-04-27T22:29:27.246Z,85.40
2018-04-27T22:31:58.851Z,85.90
2018-04-27T22:34:28.966Z,85.90
2018-04-27T22:36:58.801Z,85.40
2018-04-27T22:39:33.815Z,85.40
2018-04-27T22:42:04.703Z,85.10
2018-04-27T22:44:47.338Z,84.30
2018-04-27T22:47:15.555Z,85.00
2018-04-27T22:49:43.810Z,84.40
2018-04-27T22:52:12.035Z,83.30
2018-04-27T22:54:46.571Z,83.40
2018-04-27T22:57:16.604Z,83.40
2018-04-27T22:59:46.466Z,82.90
2018-04-27T23:02:27.783Z,84.00
2018-04-27T23:07:52.136Z,83.60
2018-04-27T23:10:20.371Z,82.60
2018-04-27T23:12:55.263Z,83.90
2018-04-27T23:15:24.267Z,82.70
2018-04-27T23:17:52.495Z,82.70
2018-04-27T23:20:22.438Z,81.80
2018-04-27T23:23:01.325Z,80.80
2018-04-27T23:25:41.403Z,80.70
2018-04-27T23:28:09.607Z,81.10
2018-04-27T23:30:37.851Z,82.40
2018-04-27T23:33:06.071Z,82.60
2018-04-27T23:35:34.318Z,83.50
2018-04-27T23:38:04.308Z,84.00
2018-04-27T23:40:32.548Z,84.10
2018-04-27T23:43:00.767Z,84.60
2018-04-27T23:45:29.755Z,85.80
2018-04-27T23:47:59.455Z,85.90
2018-04-27T23:50:27.720Z,85.80
2018-04-27T23:52:55.955Z,87.40
2018-04-27T23:55:24.178Z,88.40
2018-04-27T23:57:52.411Z,88.40
